createdAt,value
2019-01-19T00:02:24.367Z,42.50
2019-01-19T00:05:30.781Z,42.25
2019-01-19T00:08:30.536Z,42.77
2019-01-19T00:12:01.862Z,42.27
2019-01-19T00:14:57.764Z,42.27
2019-01-19T00:18:19.827Z,42.26
2019-01-19T00:21:29.831Z,42.26
2019-01-19T00:24:47.881Z,42.26
2019-01-19T00:27:40.594Z,42.43
2019-01-19T00:30:34.826Z,42.13
2019-01-19T00:33:46.626Z,42.13
2019-01-19T00:36:43.410Z,42.24
2019-01-19T00:40:46.101Z,42.20
2019-01-19T00:44:02.894Z,41.72
2019-01-19T00:46:58.425Z,41.30
2019-01-19T00:49:32.992Z,41.30
2019-01-19T00:53:10.865Z,40.77
2019-01-19T00:56:37.878Z,41.99
2019-01-19T00:59:20.793Z,40.94
2019-01-19T01:02:27.789Z,40.94
2019-01-19T01:05:34.814Z,41.19
2019-01-19T01:08:50.881Z,40.71
2019-01-19T01:11:52.873Z,40.71
2019-01-19T01:14:45.874Z,42.17
2019-01-19T01:17:47.865Z,40.95
2019-01-19T01:21:37.919Z,40.95
2019-01-19T01:24:26.826Z,41.05
2019-01-19T01:27:18.414Z,41.05
2019-01-19T01:30:39.801Z,40.45
2019-01-19T01:33:47.863Z,41.55
2019-01-19T01:36:42.890Z,40.40
2019-01-19T01:39:52.924Z,41.46
2019-01-19T01:43:13.723Z,41.54
2019-01-19T01:46:11.895Z,41.54
2019-01-19T01:49:28.908Z,41.73
2019-01-19T01:52:45.906Z,41.03
2019-01-19T01:55:42.886Z,40.66
2019-01-19T01:58:27.952Z,41.13
2019-01-19T02:01:49.803Z,41.62
2019-01-19T02:05:06.785Z,41.62
2019-01-19T02:08:02.929Z,39.98
2019-01-19T02:11:32.810Z,41.33
2019-01-19T02:14:32.118Z,41.33
2019-01-19T02:18:21.397Z,41.21
2019-01-19T02:22:07.018Z,41.56
2019-01-19T02:25:24.827Z,41.24
2019-01-19T02:28:08.636Z,41.24
2019-01-19T02:31:42.799Z,40.90
2019-01-19T02:35:10.809Z,41.13
2019-01-19T02:37:53.856Z,40.40
2019-01-19T02:40:43.881Z,41.08
2019-01-19T02:44:01.941Z,41.28
2019-01-19T02:47:45.831Z,40.56
2019-01-19T02:50:27.825Z,40.56
2019-01-19T02:53:16.832Z,41.04
2019-01-19T02:56:29.901Z,40.28
2019-01-19T02:59:52.762Z,40.95
2019-01-19T03:03:02.049Z,40.95
2019-01-19T03:06:12.775Z,41.36
2019-01-19T03:09:04.807Z,41.36
2019-01-19T03:12:09.837Z,41.21
2019-01-19T03:15:17.804Z,40.68
2019-01-19T03:18:50.819Z,40.68
2019-01-19T03:21:57.863Z,39.76
2019-01-19T03:25:09.757Z,40.66
2019-01-19T03:27:54.821Z,40.66
2019-01-19T03:31:13.924Z,40.48
2019-01-19T03:34:12.774Z,40.60
2019-01-19T03:37:26.233Z,40.60
2019-01-19T03:40:44.800Z,41.06
2019-01-19T03:44:10.786Z,39.61
2019-01-19T03:47:32.768Z,40.64
2019-01-19T03:50:51.850Z,40.18
2019-01-19T03:53:54.658Z,40.36
2019-01-19T03:56:59.754Z,40.16
2019-01-19T04:00:34.834Z,40.16
2019-01-19T04:03:26.855Z,40.57
2019-01-19T04:06:19.826Z,39.60
2019-01-19T04:10:04.881Z,40.38
2019-01-19T04:13:41.836Z,39.86
2019-01-19T04:16:59.784Z,40.51
2019-01-19T04:20:09.878Z,40.51
2019-01-19T04:22:46.076Z,40.54
2019-01-19T04:25:58.906Z,40.54
2019-01-19T04:28:27.893Z,40.12
2019-01-19T04:30:57.897Z,39.76
2019-01-19T04:33:27.860Z,40.32
2019-01-19T04:35:56.678Z,39.41
2019-01-19T04:38:26.403Z,39.41
2019-01-19T04:40:56.786Z,40.20
2019-01-19T04:43:25.858Z,40.45
2019-01-19T04:45:56.841Z,40.61
2019-01-19T04:48:29.069Z,40.61
2019-01-19T04:50:58.878Z,40.51
2019-01-19T04:53:28.887Z,40.73
2019-01-19T04:56:00.106Z,40.89
2019-01-19T04:58:29.798Z,40.79
2019-01-19T05:00:59.899Z,40.29
2019-01-19T05:03:32.875Z,39.85
2019-01-19T05:06:02.037Z,39.84
2019-01-19T05:08:31.791Z,39.41
2019-01-19T05:11:04.690Z,40.03
2019-01-19T05:13:34.790Z,40.03
2019-01-19T05:16:04.816Z,40.22
2019-01-19T05:18:34.963Z,40.44
2019-01-19T05:21:05.794Z,40.35
2019-01-19T05:23:36.896Z,40.35
2019-01-19T05:26:10.719Z,40.74
2019-01-19T05:28:40.068Z,40.54
2019-01-19T05:31:10.881Z,40.74
2019-01-19T05:33:40.054Z,40.20
2019-01-19T05:36:09.874Z,40.20
2019-01-19T05:38:40.410Z,40.30
2019-01-19T05:41:09.867Z,40.30
2019-01-19T05:43:38.881Z,37.10
2019-01-19T05:46:08.871Z,37.74
2019-01-19T05:48:37.831Z,38.14
2019-01-19T05:51:06.817Z,38.14
2019-01-19T05:53:36.840Z,38.44
2019-01-19T05:56:06.541Z,38.71
2019-01-19T05:58:34.955Z,38.88
2019-01-19T06:01:04.835Z,39.19
2019-01-19T06:03:34.405Z,39.19
2019-01-19T06:06:04.002Z,39.20
2019-01-19T06:08:33.805Z,39.66
2019-01-19T06:11:52.646Z,37.94
2019-01-19T06:14:21.821Z,37.94
2019-01-19T06:16:52.828Z,38.43
2019-01-19T06:19:21.850Z,38.43
2019-01-19T06:21:59.910Z,38.77
2019-01-19T06:24:28.903Z,38.80
2019-01-19T06:26:57.859Z,39.04
2019-01-19T06:29:26.719Z,39.20
2019-01-19T06:31:54.906Z,39.20
2019-01-19T06:34:23.352Z,38.64
2019-01-19T06:36:55.029Z,38.64
2019-01-19T06:39:24.398Z,38.55
2019-01-19T06:41:52.917Z,38.42
2019-01-19T06:44:30.351Z,38.27
2019-01-19T06:49:07.907Z,38.60
2019-01-19T06:51:35.886Z,39.28
2019-01-19T06:54:03.970Z,39.27
2019-01-19T06:56:34.125Z,39.36
2019-01-19T06:59:03.364Z,39.36
2019-01-19T07:01:31.845Z,39.41
2019-01-19T07:04:00.364Z,39.72
2019-01-19T07:06:28.844Z,39.72
2019-01-19T07:10:19.737Z,39.63
2019-01-19T07:12:47.251Z,39.63
2019-01-19T07:15:15.046Z,39.75
2019-01-19T07:17:42.981Z,39.94
2019-01-19T07:20:22.385Z,39.97
2019-01-19T07:22:50.382Z,39.98
2019-01-19T07:25:19.086Z,40.30
2019-01-19T07:27:47.986Z,39.92
2019-01-19T07:30:16.823Z,39.32
2019-01-19T07:32:45.736Z,39.32
2019-01-19T07:35:14.851Z,39.56
2019-01-19T07:37:45.832Z,39.52
2019-01-19T07:40:14.850Z,39.34
2019-01-19T07:42:47.797Z,39.50
2019-01-19T07:45:15.786Z,39.31
2019-01-19T07:47:43.937Z,39.74
2019-01-19T07:50:15.788Z,40.56
2019-01-19T07:52:43.956Z,40.56
2019-01-19T07:55:12.869Z,40.06
2019-01-19T07:57:40.840Z,39.88
2019-01-19T08:02:32.803Z,39.76
2019-01-19T08:05:01.852Z,39.76
2019-01-19T08:07:29.874Z,40.18
2019-01-19T08:09:58.811Z,39.62
2019-01-19T08:12:26.896Z,39.62
2019-01-19T08:14:55.355Z,40.08
2019-01-19T08:17:24.822Z,38.77
2019-01-19T08:19:52.786Z,38.77
2019-01-19T08:22:20.741Z,38.83
2019-01-19T08:24:49.936Z,39.42
2019-01-19T08:27:18.868Z,39.51
2019-01-19T08:29:46.717Z,39.47
2019-01-19T08:32:15.772Z,39.47
2019-01-19T08:35:17.102Z,39.69
2019-01-19T08:37:46.801Z,39.66
2019-01-19T08:40:16.869Z,39.84
2019-01-19T08:42:54.290Z,39.39
2019-01-19T08:45:25.662Z,39.39
2019-01-19T08:47:55.856Z,38.74
2019-01-19T08:50:28.769Z,39.02
2019-01-19T08:52:57.780Z,38.93
2019-01-19T08:55:26.387Z,38.93
2019-01-19T08:57:56.754Z,39.35
2019-01-19T09:00:25.223Z,39.62
2019-01-19T09:02:54.020Z,39.28
2019-01-19T09:05:24.619Z,38.56
2019-01-19T09:07:54.598Z,38.56
2019-01-19T09:10:23.961Z,38.68
2019-01-19T09:16:21.307Z,38.12
2019-01-19T09:18:51.867Z,38.64
2019-01-19T09:27:56.770Z,38.77
2019-01-19T09:30:23.933Z,38.26
2019-01-19T09:32:52.798Z,38.27
2019-01-19T09:35:20.891Z,38.27
2019-01-19T09:37:49.795Z,38.36
2019-01-19T09:40:18.815Z,38.36
2019-01-19T09:42:46.764Z,38.78
2019-01-19T09:45:14.714Z,38.39
2019-01-19T09:48:02.774Z,38.84
2019-01-19T09:50:30.930Z,38.77
2019-01-19T09:53:01.727Z,39.50
2019-01-19T09:55:30.115Z,39.06
2019-01-19T09:58:00.350Z,39.69
2019-01-19T10:00:35.653Z,39.27
2019-01-19T10:03:02.876Z,40.19
2019-01-19T10:05:48.808Z,40.05
2019-01-19T10:08:18.401Z,40.05
2019-01-19T10:10:48.801Z,39.71
2019-01-19T10:13:18.819Z,39.86
2019-01-19T10:16:52.801Z,39.80
2019-01-19T10:21:11.842Z,39.90
2019-01-19T10:23:40.706Z,40.60
2019-01-19T10:26:08.782Z,39.82
2019-01-19T10:28:37.536Z,40.26
2019-01-19T10:31:05.785Z,40.58
2019-01-19T10:34:59.771Z,40.83
2019-01-19T10:37:27.627Z,40.51
2019-01-19T10:39:55.368Z,40.34
2019-01-19T10:42:23.774Z,39.26
2019-01-19T10:44:52.888Z,39.32
2019-01-19T10:47:20.703Z,40.93
2019-01-19T10:51:39.467Z,39.50
2019-01-19T10:54:07.271Z,39.19
2019-01-19T10:56:36.337Z,39.01
2019-01-19T10:59:04.689Z,39.66
2019-01-19T11:01:32.361Z,39.39
2019-01-19T11:04:00.712Z,39.32
2019-01-19T11:08:53.003Z,39.87
2019-01-19T11:11:21.878Z,39.27
2019-01-19T11:13:51.749Z,38.48
2019-01-19T11:16:19.768Z,38.48
2019-01-19T11:18:48.091Z,38.77
2019-01-19T11:21:16.826Z,38.56
2019-01-19T11:27:08.889Z,38.20
2019-01-19T11:29:37.050Z,37.97
2019-01-19T11:32:04.657Z,37.61
2019-01-19T11:34:32.925Z,38.06
2019-01-19T11:37:00.316Z,37.85
2019-01-19T11:39:27.604Z,38.15
2019-01-19T11:41:55.874Z,38.64
2019-01-19T11:44:25.777Z,39.19
2019-01-19T11:46:55.836Z,39.19
2019-01-19T11:49:24.598Z,38.09
2019-01-19T11:51:53.774Z,38.09
2019-01-19T11:54:21.905Z,37.66
2019-01-19T12:07:09.762Z,37.84
2019-01-19T12:09:37.238Z,37.87
2019-01-19T12:12:05.604Z,37.92
2019-01-19T12:15:16.785Z,37.37
2019-01-19T12:17:44.759Z,37.37
2019-01-19T12:20:23.811Z,37.11
2019-01-19T12:22:51.837Z,37.43
2019-01-19T12:25:21.797Z,38.27
2019-01-19T12:27:53.805Z,38.04
2019-01-19T12:30:24.878Z,38.04
2019-01-19T12:32:55.802Z,38.29
2019-01-19T12:35:25.490Z,38.29
2019-01-19T12:37:54.723Z,38.29
2019-01-19T12:40:23.733Z,38.80
2019-01-19T12:42:54.782Z,37.39
2019-01-19T12:45:29.893Z,35.65
2019-01-19T12:47:58.603Z,35.00
2019-01-19T12:50:27.816Z,35.00
2019-01-19T12:52:56.884Z,34.26
2019-01-19T12:55:26.828Z,35.10
2019-01-19T12:57:56.370Z,36.17
2019-01-19T13:00:26.617Z,36.17
2019-01-19T13:02:56.836Z,35.57
2019-01-19T13:07:32.826Z,35.69
2019-01-19T13:10:17.820Z,36.36
2019-01-19T13:12:57.934Z,36.65
2019-01-19T13:19:22.775Z,36.98
2019-01-19T13:23:05.441Z,35.20
2019-01-19T13:26:13.341Z,36.92
2019-01-19T13:29:42.757Z,36.47
2019-01-19T13:32:55.845Z,37.88
2019-01-19T13:36:12.051Z,38.01
2019-01-19T13:40:35.739Z,37.27
2019-01-19T13:43:32.946Z,37.57
2019-01-19T13:46:29.165Z,38.26
2019-01-19T13:50:01.741Z,38.26
2019-01-19T13:52:46.851Z,36.31
2019-01-19T13:55:30.834Z,36.10
2019-01-19T13:58:11.290Z,35.88
2019-01-19T14:01:48.330Z,35.88
2019-01-19T14:05:02.823Z,35.39
2019-01-19T14:07:47.363Z,36.52
2019-01-19T14:10:44.068Z,36.20
2019-01-19T14:13:56.879Z,36.86
2019-01-19T14:17:19.807Z,36.71
2019-01-19T14:20:28.750Z,36.71
2019-01-19T14:23:22.758Z,38.12
2019-01-19T14:26:28.703Z,37.88
2019-01-19T14:29:16.455Z,38.21
2019-01-19T14:32:28.309Z,37.31
2019-01-19T14:35:44.865Z,37.67
2019-01-19T14:38:56.771Z,38.39
2019-01-19T14:41:58.371Z,38.39
2019-01-19T14:45:19.787Z,39.10
2019-01-19T14:48:08.858Z,39.02
2019-01-19T14:51:23.022Z,39.48
2019-01-19T14:54:30.086Z,39.72
2019-01-19T14:58:08.899Z,39.72
2019-01-19T15:01:29.047Z,38.29
2019-01-19T15:04:24.854Z,38.29
2019-01-19T15:08:03.578Z,38.42
2019-01-19T15:11:22.727Z,37.81
2019-01-19T15:14:29.788Z,37.81
2019-01-19T15:18:00.604Z,39.30
2019-01-19T15:21:24.759Z,39.35
2019-01-19T15:24:31.341Z,41.16
2019-01-19T15:28:02.832Z,39.77
2019-01-19T15:32:51.708Z,39.37
2019-01-19T15:38:13.410Z,40.35
2019-01-19T15:41:21.853Z,40.94
2019-01-19T15:44:47.482Z,40.38
2019-01-19T15:47:38.849Z,40.38
2019-01-19T15:50:39.776Z,39.41
2019-01-19T15:56:18.378Z,39.63
2019-01-19T15:59:19.859Z,39.63
2019-01-19T16:02:26.782Z,37.87
2019-01-19T16:06:07.988Z,38.85
2019-01-19T16:09:26.838Z,38.85
2019-01-19T16:12:20.817Z,39.20
2019-01-19T16:15:06.800Z,39.20
2019-01-19T16:19:44.860Z,38.54
2019-01-19T16:22:50.354Z,38.72
2019-01-19T16:26:26.822Z,38.72
2019-01-19T16:29:27.808Z,38.79
2019-01-19T16:34:36.308Z,38.54
2019-01-19T16:38:00.871Z,38.54
2019-01-19T16:41:06.869Z,38.59
2019-01-19T16:43:59.690Z,38.20
2019-01-19T16:47:06.864Z,38.20
2019-01-19T16:49:52.766Z,38.41
2019-01-19T16:52:55.769Z,38.96
2019-01-19T16:55:42.826Z,39.09
2019-01-19T16:58:49.711Z,37.93
2019-01-19T17:01:54.775Z,38.80
2019-01-19T17:05:08.539Z,38.73
2019-01-19T17:07:54.782Z,38.05
2019-01-19T17:10:39.764Z,38.84
2019-01-19T17:13:59.051Z,38.96
2019-01-19T17:16:59.798Z,34.38
2019-01-19T17:20:12.835Z,34.38
2019-01-19T17:22:47.855Z,36.42
2019-01-19T17:25:57.076Z,36.42
2019-01-19T17:29:11.095Z,36.28
2019-01-19T17:32:15.362Z,36.28
2019-01-19T17:35:31.711Z,37.23
2019-01-19T17:38:41.768Z,37.55
2019-01-19T17:41:44.800Z,35.68
2019-01-19T17:44:30.683Z,33.20
2019-01-19T17:47:31.750Z,32.97
2019-01-19T17:50:53.761Z,32.97
2019-01-19T17:53:45.828Z,34.36
2019-01-19T17:58:53.568Z,34.61
2019-01-19T18:02:26.491Z,34.50
2019-01-19T18:05:17.806Z,34.77
2019-01-19T18:08:06.826Z,35.13
2019-01-19T18:12:30.801Z,35.29
2019-01-19T18:15:46.778Z,35.99
2019-01-19T18:18:51.788Z,38.15
2019-01-19T18:21:41.356Z,38.69
2019-01-19T18:24:35.779Z,37.97
2019-01-19T18:31:12.774Z,38.39
2019-01-19T18:34:26.367Z,38.39
2019-01-19T18:37:57.027Z,37.67
2019-01-19T18:41:04.843Z,38.91
2019-01-19T18:44:06.410Z,38.49
2019-01-19T18:47:51.810Z,39.07
2019-01-19T18:51:21.785Z,39.57
2019-01-19T18:54:47.870Z,37.86
2019-01-19T18:58:09.357Z,37.41
2019-01-19T19:01:39.855Z,37.41
2019-01-19T19:04:51.399Z,37.28
2019-01-19T19:08:10.413Z,37.28
2019-01-19T19:11:49.829Z,37.71
2019-01-19T19:15:00.321Z,38.29
2019-01-19T19:18:27.775Z,38.29
2019-01-19T19:21:28.786Z,38.29
2019-01-19T19:24:47.228Z,38.41
2019-01-19T19:28:23.605Z,38.41
2019-01-19T19:31:40.364Z,38.81
2019-01-19T19:34:49.818Z,38.81
2019-01-19T19:37:56.875Z,37.57
2019-01-19T19:41:06.700Z,38.34
2019-01-19T19:44:22.697Z,38.34
2019-01-19T19:47:29.402Z,37.12
2019-01-19T19:50:46.381Z,38.22
2019-01-19T19:53:15.400Z,38.87
2019-01-19T19:55:42.401Z,39.65
2019-01-19T19:58:12.413Z,40.33
2019-01-19T20:00:42.009Z,40.33
2019-01-19T20:03:11.824Z,40.28
2019-01-19T20:05:40.786Z,40.99
2019-01-19T20:08:09.244Z,41.00
2019-01-19T20:10:38.626Z,40.35
2019-01-19T20:13:07.785Z,40.47
2019-01-19T20:15:36.370Z,40.25
2019-01-19T20:18:05.798Z,38.41
2019-01-19T20:20:34.583Z,38.08
2019-01-19T20:23:03.813Z,37.69
2019-01-19T20:25:33.790Z,37.64
2019-01-19T20:28:02.051Z,37.76
2019-01-19T20:30:31.875Z,37.92
2019-01-19T20:33:00.819Z,37.79
2019-01-19T20:36:14.930Z,38.32
2019-01-19T20:38:43.332Z,38.46
2019-01-19T20:41:11.692Z,38.46
2019-01-19T20:43:39.833Z,38.26
2019-01-19T20:46:07.830Z,37.88
2019-01-19T20:48:37.253Z,37.86
2019-01-19T20:51:06.590Z,37.64
2019-01-19T20:53:34.821Z,37.90
2019-01-19T20:56:03.282Z,37.95
2019-01-19T20:58:32.802Z,37.95
2019-01-19T21:01:02.610Z,38.36
2019-01-19T21:07:04.985Z,38.44
2019-01-19T21:09:33.804Z,38.30
2019-01-19T21:12:02.764Z,38.30
2019-01-19T21:14:30.670Z,38.31
2019-01-19T21:17:00.208Z,37.86
2019-01-19T21:19:28.329Z,38.16
2019-01-19T21:21:56.749Z,38.83
2019-01-19T21:26:27.578Z,38.61
2019-01-19T21:28:55.400Z,38.85
2019-01-19T21:31:23.799Z,38.79
2019-01-19T21:35:17.712Z,38.66
2019-01-19T21:37:45.974Z,38.71
2019-01-19T21:40:14.763Z,38.47
2019-01-19T21:45:17.475Z,38.97
2019-01-19T21:47:46.440Z,38.92
2019-01-19T21:50:14.767Z,39.26
2019-01-19T21:52:43.799Z,39.23
2019-01-19T21:55:12.351Z,39.68
2019-01-19T21:57:40.749Z,39.26
2019-01-19T22:00:11.333Z,39.51
2019-01-19T22:02:39.758Z,39.40
2019-01-19T22:05:07.698Z,39.69
2019-01-19T22:07:36.676Z,39.26
2019-01-19T22:10:05.802Z,38.53
2019-01-19T22:12:39.063Z,38.44
2019-01-19T22:15:11.795Z,38.26
2019-01-19T22:21:09.525Z,38.95
2019-01-19T22:23:38.866Z,38.79
2019-01-19T22:26:08.375Z,38.64
2019-01-19T22:28:36.572Z,38.64
2019-01-19T22:31:04.767Z,38.71
2019-01-19T22:36:15.938Z,37.81
2019-01-19T22:38:44.396Z,38.76
2019-01-19T22:41:13.705Z,38.76
2019-01-19T22:43:41.681Z,39.11
2019-01-19T22:46:10.046Z,39.37
2019-01-19T22:48:38.332Z,39.34
2019-01-19T22:51:11.324Z,39.31
2019-01-19T22:53:37.594Z,39.31
2019-01-19T22:56:05.762Z,39.30
2019-01-19T22:58:34.013Z,39.44
2019-01-19T23:01:32.839Z,39.51
2019-01-19T23:04:00.686Z,38.38
2019-01-19T23:06:28.883Z,38.38
2019-01-19T23:08:56.900Z,38.45
2019-01-19T23:11:25.059Z,38.91
2019-01-19T23:13:53.839Z,39.74
2019-01-19T23:16:22.099Z,39.74
2019-01-19T23:18:50.689Z,39.74
2019-01-19T23:21:18.366Z,39.95
2019-01-19T23:23:46.705Z,39.72
2019-01-19T23:26:14.919Z,39.87
2019-01-19T23:28:43.752Z,39.68
2019-01-19T23:31:11.706Z,39.68
2019-01-19T23:33:39.618Z,39.62
2019-01-19T23:46:35.522Z,39.78
2019-01-19T23:49:02.926Z,39.78
2019-01-19T23:51:31.774Z,39.30
2019-01-19T23:54:00.698Z,39.30
2019-01-19T23:56:28.772Z,39.87
2019-01-19T23:58:56.707Z,39.83
